sensor_id;sensor_type;location;lat;lon;timestamp;temperature;humidity
81951;DHT22;71452;52.562;5.642;2023-11-21T00:00:14;10.30;77.10
81951;DHT22;71452;52.562;5.642;2023-11-21T00:02:46;10.30;77.10
81951;DHT22;71452;52.562;5.642;2023-11-21T00:05:15;10.30;77.20
81951;DHT22;71452;52.562;5.642;2023-11-21T00:07:45;10.30;77.10
81951;DHT22;71452;52.562;5.642;2023-11-21T00:10:14;10.30;77.10
81951;DHT22;71452;52.562;5.642;2023-11-21T00:12:43;10.30;77.00
81951;DHT22;71452;52.562;5.642;2023-11-21T00:15:14;10.30;77.00
81951;DHT22;71452;52.562;5.642;2023-11-21T00:17:45;10.30;77.10
81951;DHT22;71452;52.562;5.642;2023-11-21T00:20:14;10.30;77.10
81951;DHT22;71452;52.562;5.642;2023-11-21T00:22:44;10.30;77.10
81951;DHT22;71452;52.562;5.642;2023-11-21T00:25:13;10.30;77.10
81951;DHT22;71452;52.562;5.642;2023-11-21T00:27:43;10.30;77.20
81951;DHT22;71452;52.562;5.642;2023-11-21T00:30:13;10.40;77.10
81951;DHT22;71452;52.562;5.642;2023-11-21T00:32:45;10.40;77.00
81951;DHT22;71452;52.562;5.642;2023-11-21T00:35:15;10.40;76.90
81951;DHT22;71452;52.562;5.642;2023-11-21T00:37:44;10.40;76.90
81951;DHT22;71452;52.562;5.642;2023-11-21T00:40:15;10.40;77.00
81951;DHT22;71452;52.562;5.642;2023-11-21T00:42:45;10.40;76.90
81951;DHT22;71452;52.562;5.642;2023-11-21T00:45:14;10.30;76.90
81951;DHT22;71452;52.562;5.642;2023-11-21T00:47:46;10.30;77.00
81951;DHT22;71452;52.562;5.642;2023-11-21T00:50:15;10.30;77.00
81951;DHT22;71452;52.562;5.642;2023-11-21T00:52:44;10.40;77.10
81951;DHT22;71452;52.562;5.642;2023-11-21T00:55:13;10.40;77.10
81951;DHT22;71452;52.562;5.642;2023-11-21T00:57:43;10.40;77.00
81951;DHT22;71452;52.562;5.642;2023-11-21T01:00:13;10.40;77.00
81951;DHT22;71452;52.562;5.642;2023-11-21T01:02:45;10.40;77.10
81951;DHT22;71452;52.562;5.642;2023-11-21T01:05:14;10.40;77.10
81951;DHT22;71452;52.562;5.642;2023-11-21T01:07:43;10.40;77.10
81951;DHT22;71452;52.562;5.642;2023-11-21T01:10:12;10.40;77.20
81951;DHT22;71452;52.562;5.642;2023-11-21T01:12:43;10.50;77.20
81951;DHT22;71452;52.562;5.642;2023-11-21T01:15:12;10.50;77.10
81951;DHT22;71452;52.562;5.642;2023-11-21T01:17:41;10.50;77.10
81951;DHT22;71452;52.562;5.642;2023-11-21T01:20:13;10.50;77.10
81951;DHT22;71452;52.562;5.642;2023-11-21T01:22:43;10.50;77.10
81951;DHT22;71452;52.562;5.642;2023-11-21T01:25:15;10.50;77.00
81951;DHT22;71452;52.562;5.642;2023-11-21T01:27:44;10.50;77.10
81951;DHT22;71452;52.562;5.642;2023-11-21T01:30:13;10.50;77.20
81951;DHT22;71452;52.562;5.642;2023-11-21T01:32:43;10.50;77.20
81951;DHT22;71452;52.562;5.642;2023-11-21T01:35:15;10.50;77.10
81951;DHT22;71452;52.562;5.642;2023-11-21T01:37:44;10.50;77.10
81951;DHT22;71452;52.562;5.642;2023-11-21T01:40:14;10.60;77.10
81951;DHT22;71452;52.562;5.642;2023-11-21T01:42:43;10.60;77.00
81951;DHT22;71452;52.562;5.642;2023-11-21T01:45:13;10.60;77.00
81951;DHT22;71452;52.562;5.642;2023-11-21T01:47:44;10.60;77.10
81951;DHT22;71452;52.562;5.642;2023-11-21T01:50:17;10.50;77.10
81951;DHT22;71452;52.562;5.642;2023-11-21T01:52:48;10.60;77.20
81951;DHT22;71452;52.562;5.642;2023-11-21T01:55:18;10.60;77.20
81951;DHT22;71452;52.562;5.642;2023-11-21T01:57:48;10.50;77.30
81951;DHT22;71452;52.562;5.642;2023-11-21T02:00:17;10.50;77.30
81951;DHT22;71452;52.562;5.642;2023-11-21T02:02:48;10.50;77.40
81951;DHT22;71452;52.562;5.642;2023-11-21T02:05:20;10.50;77.50
81951;DHT22;71452;52.562;5.642;2023-11-21T02:07:49;10.60;77.50
81951;DHT22;71452;52.562;5.642;2023-11-21T02:10:18;10.50;77.50
81951;DHT22;71452;52.562;5.642;2023-11-21T02:12:49;10.50;77.50
81951;DHT22;71452;52.562;5.642;2023-11-21T02:15:19;10.50;77.60
81951;DHT22;71452;52.562;5.642;2023-11-21T02:17:52;10.50;77.60
81951;DHT22;71452;52.562;5.642;2023-11-21T02:20:24;10.50;77.60
81951;DHT22;71452;52.562;5.642;2023-11-21T02:23:00;10.50;77.70
81951;DHT22;71452;52.562;5.642;2023-11-21T02:25:31;10.50;77.80
81951;DHT22;71452;52.562;5.642;2023-11-21T02:28:02;10.50;77.80
81951;DHT22;71452;52.562;5.642;2023-11-21T02:30:33;10.40;77.90
81951;DHT22;71452;52.562;5.642;2023-11-21T02:33:03;10.40;77.90
81951;DHT22;71452;52.562;5.642;2023-11-21T02:35:32;10.50;78.00
81951;DHT22;71452;52.562;5.642;2023-11-21T02:38:04;10.50;77.90
81951;DHT22;71452;52.562;5.642;2023-11-21T02:40:32;10.50;78.10
81951;DHT22;71452;52.562;5.642;2023-11-21T02:43:01;10.50;78.10
81951;DHT22;71452;52.562;5.642;2023-11-21T02:45:31;10.60;78.10
81951;DHT22;71452;52.562;5.642;2023-11-21T02:48:00;10.60;78.10
81951;DHT22;71452;52.562;5.642;2023-11-21T02:50:30;10.60;78.10
81951;DHT22;71452;52.562;5.642;2023-11-21T02:53:04;10.60;78.10
81951;DHT22;71452;52.562;5.642;2023-11-21T02:55:33;10.60;78.10
81951;DHT22;71452;52.562;5.642;2023-11-21T02:58:03;10.70;78.20
81951;DHT22;71452;52.562;5.642;2023-11-21T03:00:32;10.70;78.10
81951;DHT22;71452;52.562;5.642;2023-11-21T03:03:01;10.70;78.10
81951;DHT22;71452;52.562;5.642;2023-11-21T03:05:30;10.70;78.10
81951;DHT22;71452;52.562;5.642;2023-11-21T03:08:04;10.70;78.10
81951;DHT22;71452;52.562;5.642;2023-11-21T03:10:33;10.70;78.10
81951;DHT22;71452;52.562;5.642;2023-11-21T03:13:02;10.80;78.20
81951;DHT22;71452;52.562;5.642;2023-11-21T03:15:31;10.70;78.20
81951;DHT22;71452;52.562;5.642;2023-11-21T03:18:01;10.70;78.30
81951;DHT22;71452;52.562;5.642;2023-11-21T03:20:31;10.80;78.30
81951;DHT22;71452;52.562;5.642;2023-11-21T03:23:01;10.80;78.40
81951;DHT22;71452;52.562;5.642;2023-11-21T03:25:33;10.80;78.30
81951;DHT22;71452;52.562;5.642;2023-11-21T03:28:02;10.80;78.30
81951;DHT22;71452;52.562;5.642;2023-11-21T03:30:32;10.80;78.30
81951;DHT22;71452;52.562;5.642;2023-11-21T03:33:01;10.80;78.20
81951;DHT22;71452;52.562;5.642;2023-11-21T03:35:30;10.80;78.20
81951;DHT22;71452;52.562;5.642;2023-11-21T03:37:59;10.80;78.30
81951;DHT22;71452;52.562;5.642;2023-11-21T03:40:29;10.80;78.30
81951;DHT22;71452;52.562;5.642;2023-11-21T03:43:02;10.80;78.40
81951;DHT22;71452;52.562;5.642;2023-11-21T03:45:31;10.80;78.40
81951;DHT22;71452;52.562;5.642;2023-11-21T03:48:00;10.80;78.40
81951;DHT22;71452;52.562;5.642;2023-11-21T03:50:29;10.80;78.40
81951;DHT22;71452;52.562;5.642;2023-11-21T03:52:59;10.80;78.40
81951;DHT22;71452;52.562;5.642;2023-11-21T03:55:30;10.80;78.40
81951;DHT22;71452;52.562;5.642;2023-11-21T03:58:01;10.90;78.60
81951;DHT22;71452;52.562;5.642;2023-11-21T04:00:30;10.90;78.60
81951;DHT22;71452;52.562;5.642;2023-11-21T04:02:59;10.90;78.70
81951;DHT22;71452;52.562;5.642;2023-11-21T04:05:29;10.90;78.70
81951;DHT22;71452;52.562;5.642;2023-11-21T04:07:58;10.80;78.80
81951;DHT22;71452;52.562;5.642;2023-11-21T04:10:27;10.80;79.00
81951;DHT22;71452;52.562;5.642;2023-11-21T04:12:56;10.90;79.00
81951;DHT22;71452;52.562;5.642;2023-11-21T04:15:29;10.90;79.00
81951;DHT22;71452;52.562;5.642;2023-11-21T04:17:58;10.90;79.10
81951;DHT22;71452;52.562;5.642;2023-11-21T04:20:27;10.90;79.10
81951;DHT22;71452;52.562;5.642;2023-11-21T04:22:56;10.90;79.10
81951;DHT22;71452;52.562;5.642;2023-11-21T04:25:25;10.90;79.20
81951;DHT22;71452;52.562;5.642;2023-11-21T04:27:54;11.00;79.10
81951;DHT22;71452;52.562;5.642;2023-11-21T04:30:23;11.00;79.20
81951;DHT22;71452;52.562;5.642;2023-11-21T04:32:54;11.00;79.20
81951;DHT22;71452;52.562;5.642;2023-11-21T04:35:23;11.00;79.30
81951;DHT22;71452;52.562;5.642;2023-11-21T04:37:52;11.10;79.30
81951;DHT22;71452;52.562;5.642;2023-11-21T04:40:23;11.10;79.20
81951;DHT22;71452;52.562;5.642;2023-11-21T04:42:53;11.10;79.20
81951;DHT22;71452;52.562;5.642;2023-11-21T04:45:23;11.10;79.20
81951;DHT22;71452;52.562;5.642;2023-11-21T04:47:55;11.10;79.20
81951;DHT22;71452;52.562;5.642;2023-11-21T04:50:24;11.10;79.30
81951;DHT22;71452;52.562;5.642;2023-11-21T04:52:54;11.20;79.30
81951;DHT22;71452;52.562;5.642;2023-11-21T04:55:23;11.20;79.30
81951;DHT22;71452;52.562;5.642;2023-11-21T04:57:54;11.30;79.20
81951;DHT22;71452;52.562;5.642;2023-11-21T05:00:23;11.30;79.00
81951;DHT22;71452;52.562;5.642;2023-11-21T05:02:54;11.30;79.00
81951;DHT22;71452;52.562;5.642;2023-11-21T05:05:23;11.40;79.10
81951;DHT22;71452;52.562;5.642;2023-11-21T05:07:53;11.30;79.20
81951;DHT22;71452;52.562;5.642;2023-11-21T05:10:22;11.30;79.30
81951;DHT22;71452;52.562;5.642;2023-11-21T05:12:51;11.40;79.40
81951;DHT22;71452;52.562;5.642;2023-11-21T05:15:20;11.30;79.50
81951;DHT22;71452;52.562;5.642;2023-11-21T05:17:49;11.40;79.60
81951;DHT22;71452;52.562;5.642;2023-11-21T05:20:22;11.40;79.40
81951;DHT22;71452;52.562;5.642;2023-11-21T05:22:51;11.40;79.50
81951;DHT22;71452;52.562;5.642;2023-11-21T05:25:20;11.40;79.40
81951;DHT22;71452;52.562;5.642;2023-11-21T05:27:49;11.50;79.50
81951;DHT22;71452;52.562;5.642;2023-11-21T05:30:19;11.40;79.60
81951;DHT22;71452;52.562;5.642;2023-11-21T05:32:48;11.40;79.60
81951;DHT22;71452;52.562;5.642;2023-11-21T05:35:17;11.40;79.70
81951;DHT22;71452;52.562;5.642;2023-11-21T05:37:49;11.40;79.70
81951;DHT22;71452;52.562;5.642;2023-11-21T05:40:19;11.40;79.70
81951;DHT22;71452;52.562;5.642;2023-11-21T05:42:48;11.50;79.70
81951;DHT22;71452;52.562;5.642;2023-11-21T05:45:18;11.50;79.80
81951;DHT22;71452;52.562;5.642;2023-11-21T05:47:47;11.40;79.80
81951;DHT22;71452;52.562;5.642;2023-11-21T05:50:16;11.50;79.80
81951;DHT22;71452;52.562;5.642;2023-11-21T05:52:49;11.50;79.80
81951;DHT22;71452;52.562;5.642;2023-11-21T05:55:18;11.50;79.90
81951;DHT22;71452;52.562;5.642;2023-11-21T05:57:50;11.50;79.80
81951;DHT22;71452;52.562;5.642;2023-11-21T06:00:20;11.50;79.80
81951;DHT22;71452;52.562;5.642;2023-11-21T06:02:52;11.50;79.80
81951;DHT22;71452;52.562;5.642;2023-11-21T06:05:23;11.50;79.80
81951;DHT22;71452;52.562;5.642;2023-11-21T06:07:55;11.60;79.60
81951;DHT22;71452;52.562;5.642;2023-11-21T06:10:25;11.70;79.20
81951;DHT22;71452;52.562;5.642;2023-11-21T06:12:54;11.70;79.20
81951;DHT22;71452;52.562;5.642;2023-11-21T06:15:23;11.70;79.20
81951;DHT22;71452;52.562;5.642;2023-11-21T06:17:52;11.80;79.10
81951;DHT22;71452;52.562;5.642;2023-11-21T06:20:22;11.80;79.10
81951;DHT22;71452;52.562;5.642;2023-11-21T06:22:51;11.70;79.30
81951;DHT22;71452;52.562;5.642;2023-11-21T06:25:23;11.70;79.30
81951;DHT22;71452;52.562;5.642;2023-11-21T06:27:53;11.70;79.50
81951;DHT22;71452;52.562;5.642;2023-11-21T06:30:22;11.70;79.50
81951;DHT22;71452;52.562;5.642;2023-11-21T06:32:51;11.70;79.60
81951;DHT22;71452;52.562;5.642;2023-11-21T06:35:21;11.70;79.60
81951;DHT22;71452;52.562;5.642;2023-11-21T06:37:50;11.70;79.70
81951;DHT22;71452;52.562;5.642;2023-11-21T06:40:19;11.60;80.00
81951;DHT22;71452;52.562;5.642;2023-11-21T06:42:51;11.60;80.10
81951;DHT22;71452;52.562;5.642;2023-11-21T06:45:20;11.50;80.30
81951;DHT22;71452;52.562;5.642;2023-11-21T06:47:49;11.50;80.40
81951;DHT22;71452;52.562;5.642;2023-11-21T06:50:18;11.40;80.60
81951;DHT22;71452;52.562;5.642;2023-11-21T06:52:47;11.40;80.50
81951;DHT22;71452;52.562;5.642;2023-11-21T06:55:16;11.30;80.70
81951;DHT22;71452;52.562;5.642;2023-11-21T06:57:45;11.20;80.80
81951;DHT22;71452;52.562;5.642;2023-11-21T07:00:18;11.30;80.70
81951;DHT22;71452;52.562;5.642;2023-11-21T07:02:47;11.30;80.70
81951;DHT22;71452;52.562;5.642;2023-11-21T07:05:16;11.30;80.70
81951;DHT22;71452;52.562;5.642;2023-11-21T07:07:47;11.10;80.90
81951;DHT22;71452;52.562;5.642;2023-11-21T07:10:17;11.20;81.00
81951;DHT22;71452;52.562;5.642;2023-11-21T07:12:45;11.10;81.00
81951;DHT22;71452;52.562;5.642;2023-11-21T07:15:17;11.00;81.30
81951;DHT22;71452;52.562;5.642;2023-11-21T07:17:46;11.00;81.30
81951;DHT22;71452;52.562;5.642;2023-11-21T07:20:16;11.00;81.30
81951;DHT22;71452;52.562;5.642;2023-11-21T07:22:45;11.10;81.20
81951;DHT22;71452;52.562;5.642;2023-11-21T07:25:14;11.00;81.10
81951;DHT22;71452;52.562;5.642;2023-11-21T07:27:43;11.00;81.40
81951;DHT22;71452;52.562;5.642;2023-11-21T07:30:13;11.00;81.30
81951;DHT22;71452;52.562;5.642;2023-11-21T07:32:46;11.00;81.10
81951;DHT22;71452;52.562;5.642;2023-11-21T07:35:15;11.00;81.00
81951;DHT22;71452;52.562;5.642;2023-11-21T07:37:44;11.10;81.00
81951;DHT22;71452;52.562;5.642;2023-11-21T07:40:15;11.10;80.70
81951;DHT22;71452;52.562;5.642;2023-11-21T07:42:44;11.00;80.90
81951;DHT22;71452;52.562;5.642;2023-11-21T07:45:13;11.10;80.70
81951;DHT22;71452;52.562;5.642;2023-11-21T07:47:42;11.00;80.70
81951;DHT22;71452;52.562;5.642;2023-11-21T07:50:14;11.00;80.90
81951;DHT22;71452;52.562;5.642;2023-11-21T07:52:43;11.00;80.80
81951;DHT22;71452;52.562;5.642;2023-11-21T07:55:12;11.00;80.80
81951;DHT22;71452;52.562;5.642;2023-11-21T07:57:41;11.00;80.70
81951;DHT22;71452;52.562;5.642;2023-11-21T08:00:12;11.10;80.50
81951;DHT22;71452;52.562;5.642;2023-11-21T08:02:41;11.10;80.30
81951;DHT22;71452;52.562;5.642;2023-11-21T08:05:14;11.10;80.30
81951;DHT22;71452;52.562;5.642;2023-11-21T08:07:44;11.10;80.30
81951;DHT22;71452;52.562;5.642;2023-11-21T08:10:13;11.10;80.20
81951;DHT22;71452;52.562;5.642;2023-11-21T08:12:43;11.10;80.10
81951;DHT22;71452;52.562;5.642;2023-11-21T08:15:14;11.10;80.20
81951;DHT22;71452;52.562;5.642;2023-11-21T08:17:43;11.10;80.00
81951;DHT22;71452;52.562;5.642;2023-11-21T08:20:15;11.10;79.90
81951;DHT22;71452;52.562;5.642;2023-11-21T08:22:44;11.10;80.00
81951;DHT22;71452;52.562;5.642;2023-11-21T08:25:14;11.00;80.20
81951;DHT22;71452;52.562;5.642;2023-11-21T08:27:45;11.00;80.10
81951;DHT22;71452;52.562;5.642;2023-11-21T08:30:15;11.00;80.10
81951;DHT22;71452;52.562;5.642;2023-11-21T08:32:45;10.90;80.20
81951;DHT22;71452;52.562;5.642;2023-11-21T08:35:17;10.90;80.50
81951;DHT22;71452;52.562;5.642;2023-11-21T08:37:46;10.90;80.50
81951;DHT22;71452;52.562;5.642;2023-11-21T08:40:15;11.00;80.20
81951;DHT22;71452;52.562;5.642;2023-11-21T08:42:44;11.10;79.70
81951;DHT22;71452;52.562;5.642;2023-11-21T08:45:14;11.10;79.50
81951;DHT22;71452;52.562;5.642;2023-11-21T08:47:43;11.00;79.60
81951;DHT22;71452;52.562;5.642;2023-11-21T08:50:13;11.00;79.50
81951;DHT22;71452;52.562;5.642;2023-11-21T08:52:45;11.00;79.40
81951;DHT22;71452;52.562;5.642;2023-11-21T08:55:14;10.90;79.50
81951;DHT22;71452;52.562;5.642;2023-11-21T08:57:46;10.90;79.50
81951;DHT22;71452;52.562;5.642;2023-11-21T09:00:16;10.80;79.70
81951;DHT22;71452;52.562;5.642;2023-11-21T09:02:45;10.90;79.90
81951;DHT22;71452;52.562;5.642;2023-11-21T09:05:15;10.80;79.80
81951;DHT22;71452;52.562;5.642;2023-11-21T09:07:47;10.90;79.70
81951;DHT22;71452;52.562;5.642;2023-11-21T09:10:16;10.80;80.00
81951;DHT22;71452;52.562;5.642;2023-11-21T09:12:46;10.80;80.00
81951;DHT22;71452;52.562;5.642;2023-11-21T09:15:15;10.80;79.80
81951;DHT22;71452;52.562;5.642;2023-11-21T09:17:46;10.80;79.90
81951;DHT22;71452;52.562;5.642;2023-11-21T09:20:15;10.90;79.80
81951;DHT22;71452;52.562;5.642;2023-11-21T09:22:49;10.90;79.70
81951;DHT22;71452;52.562;5.642;2023-11-21T09:25:18;10.90;79.70
81951;DHT22;71452;52.562;5.642;2023-11-21T09:27:47;10.80;79.80
81951;DHT22;71452;52.562;5.642;2023-11-21T09:30:16;10.90;79.70
81951;DHT22;71452;52.562;5.642;2023-11-21T09:32:46;10.90;79.50
81951;DHT22;71452;52.562;5.642;2023-11-21T09:35:16;10.90;79.70
81951;DHT22;71452;52.562;5.642;2023-11-21T09:37:45;11.00;79.60
81951;DHT22;71452;52.562;5.642;2023-11-21T09:40:21;11.00;79.80
81951;DHT22;71452;52.562;5.642;2023-11-21T09:42:54;11.00;79.70
81951;DHT22;71452;52.562;5.642;2023-11-21T09:45:28;11.10;79.40
81951;DHT22;71452;52.562;5.642;2023-11-21T09:48:00;10.90;79.40
81951;DHT22;71452;52.562;5.642;2023-11-21T09:50:32;10.90;79.60
81951;DHT22;71452;52.562;5.642;2023-11-21T09:53:09;10.90;79.50
81951;DHT22;71452;52.562;5.642;2023-11-21T09:55:46;11.00;79.40
81951;DHT22;71452;52.562;5.642;2023-11-21T09:58:16;11.00;79.20
81951;DHT22;71452;52.562;5.642;2023-11-21T10:00:47;11.00;79.20
81951;DHT22;71452;52.562;5.642;2023-11-21T10:03:16;10.90;79.00
81951;DHT22;71452;52.562;5.642;2023-11-21T10:05:45;10.70;79.50
81951;DHT22;71452;52.562;5.642;2023-11-21T10:08:17;10.60;79.90
81951;DHT22;71452;52.562;5.642;2023-11-21T10:10:53;10.60;80.30
81951;DHT22;71452;52.562;5.642;2023-11-21T10:13:23;10.70;80.30
81951;DHT22;71452;52.562;5.642;2023-11-21T10:15:52;10.60;80.40
81951;DHT22;71452;52.562;5.642;2023-11-21T10:18:22;10.70;80.00
81951;DHT22;71452;52.562;5.642;2023-11-21T10:20:53;10.80;80.00
81951;DHT22;71452;52.562;5.642;2023-11-21T10:23:23;10.80;79.80
81951;DHT22;71452;52.562;5.642;2023-11-21T10:25:55;10.70;80.00
81951;DHT22;71452;52.562;5.642;2023-11-21T10:28:25;10.70;79.80
81951;DHT22;71452;52.562;5.642;2023-11-21T10:30:54;10.80;79.70
81951;DHT22;71452;52.562;5.642;2023-11-21T10:33:27;10.70;80.00
81951;DHT22;71452;52.562;5.642;2023-11-21T10:35:57;10.70;80.10
81951;DHT22;71452;52.562;5.642;2023-11-21T10:38:27;10.90;79.60
81951;DHT22;71452;52.562;5.642;2023-11-21T10:40:59;11.00;79.60
81951;DHT22;71452;52.562;5.642;2023-11-21T10:43:30;11.00;79.50
81951;DHT22;71452;52.562;5.642;2023-11-21T10:45:59;11.00;79.50
81951;DHT22;71452;52.562;5.642;2023-11-21T10:48:28;10.80;79.60
81951;DHT22;71452;52.562;5.642;2023-11-21T10:50:57;10.80;80.00
81951;DHT22;71452;52.562;5.642;2023-11-21T10:53:28;10.80;80.10
81951;DHT22;71452;52.562;5.642;2023-11-21T10:56:06;10.70;80.30
81951;DHT22;71452;52.562;5.642;2023-11-21T10:58:38;10.80;80.30
81951;DHT22;71452;52.562;5.642;2023-11-21T11:01:08;10.80;80.40
81951;DHT22;71452;52.562;5.642;2023-11-21T11:03:38;10.80;80.30
81951;DHT22;71452;52.562;5.642;2023-11-21T11:06:07;10.80;80.30
81951;DHT22;71452;52.562;5.642;2023-11-21T11:08:39;10.90;80.10
81951;DHT22;71452;52.562;5.642;2023-11-21T11:11:11;10.80;80.20
81951;DHT22;71452;52.562;5.642;2023-11-21T11:13:43;10.80;79.60
81951;DHT22;71452;52.562;5.642;2023-11-21T11:16:15;10.90;79.20
81951;DHT22;71452;52.562;5.642;2023-11-21T11:18:46;10.80;79.00
81951;DHT22;71452;52.562;5.642;2023-11-21T11:21:26;10.80;79.20
81951;DHT22;71452;52.562;5.642;2023-11-21T11:24:15;10.80;79.40
81951;DHT22;71452;52.562;5.642;2023-11-21T11:26:56;10.80;79.60
81951;DHT22;71452;52.562;5.642;2023-11-21T11:29:32;11.00;79.40
81951;DHT22;71452;52.562;5.642;2023-11-21T11:32:11;10.80;79.20
81951;DHT22;71452;52.562;5.642;2023-11-21T11:34:47;10.70;79.40
81951;DHT22;71452;52.562;5.642;2023-11-21T11:37:19;10.70;79.70
81951;DHT22;71452;52.562;5.642;2023-11-21T11:39:49;10.60;79.60
81951;DHT22;71452;52.562;5.642;2023-11-21T11:42:23;10.70;79.60
81951;DHT22;71452;52.562;5.642;2023-11-21T11:44:52;10.70;79.00
81951;DHT22;71452;52.562;5.642;2023-11-21T11:47:25;10.70;78.80
81951;DHT22;71452;52.562;5.642;2023-11-21T11:50:01;10.60;78.30
81951;DHT22;71452;52.562;5.642;2023-11-21T11:52:38;10.50;78.40
81951;DHT22;71452;52.562;5.642;2023-11-21T11:55:09;10.50;78.50
81951;DHT22;71452;52.562;5.642;2023-11-21T11:57:43;10.50;78.60
81951;DHT22;71452;52.562;5.642;2023-11-21T12:00:18;10.50;78.50
81951;DHT22;71452;52.562;5.642;2023-11-21T12:02:50;10.50;78.60
81951;DHT22;71452;52.562;5.642;2023-11-21T12:05:21;10.50;78.60
81951;DHT22;71452;52.562;5.642;2023-11-21T12:07:55;10.50;78.70
81951;DHT22;71452;52.562;5.642;2023-11-21T12:10:25;10.60;78.70
81951;DHT22;71452;52.562;5.642;2023-11-21T12:12:58;10.60;78.80
81951;DHT22;71452;52.562;5.642;2023-11-21T12:15:27;10.60;78.90
81951;DHT22;71452;52.562;5.642;2023-11-21T12:17:57;10.70;79.00
81951;DHT22;71452;52.562;5.642;2023-11-21T12:20:27;10.70;78.10
81951;DHT22;71452;52.562;5.642;2023-11-21T12:22:58;10.60;78.10
81951;DHT22;71452;52.562;5.642;2023-11-21T12:25:29;10.60;77.60
81951;DHT22;71452;52.562;5.642;2023-11-21T12:28:02;10.50;77.70
81951;DHT22;71452;52.562;5.642;2023-11-21T12:30:33;10.50;77.70
81951;DHT22;71452;52.562;5.642;2023-11-21T12:33:04;10.40;77.90
81951;DHT22;71452;52.562;5.642;2023-11-21T12:35:35;10.40;78.00
81951;DHT22;71452;52.562;5.642;2023-11-21T12:38:04;10.40;77.70
81951;DHT22;71452;52.562;5.642;2023-11-21T12:40:35;10.30;77.70
81951;DHT22;71452;52.562;5.642;2023-11-21T12:43:06;10.30;77.70
81951;DHT22;71452;52.562;5.642;2023-11-21T12:45:36;10.20;77.80
81951;DHT22;71452;52.562;5.642;2023-11-21T12:48:06;10.30;77.70
81951;DHT22;71452;52.562;5.642;2023-11-21T12:50:38;10.30;77.40
81951;DHT22;71452;52.562;5.642;2023-11-21T12:53:10;10.20;77.40
81951;DHT22;71452;52.562;5.642;2023-11-21T12:55:43;10.30;77.40
81951;DHT22;71452;52.562;5.642;2023-11-21T12:58:20;10.20;77.30
81951;DHT22;71452;52.562;5.642;2023-11-21T13:00:49;10.40;77.40
81951;DHT22;71452;52.562;5.642;2023-11-21T13:03:20;10.40;77.20
81951;DHT22;71452;52.562;5.642;2023-11-21T13:05:52;10.20;77.00
81951;DHT22;71452;52.562;5.642;2023-11-21T13:08:24;10.20;77.50
81951;DHT22;71452;52.562;5.642;2023-11-21T13:10:56;10.20;77.50
81951;DHT22;71452;52.562;5.642;2023-11-21T13:13:29;10.20;76.50
81951;DHT22;71452;52.562;5.642;2023-11-21T13:16:00;10.20;76.50
81951;DHT22;71452;52.562;5.642;2023-11-21T13:18:30;10.10;76.00
81951;DHT22;71452;52.562;5.642;2023-11-21T13:21:01;10.10;75.90
81951;DHT22;71452;52.562;5.642;2023-11-21T13:23:36;10.10;75.90
81951;DHT22;71452;52.562;5.642;2023-11-21T13:26:06;10.10;75.60
81951;DHT22;71452;52.562;5.642;2023-11-21T13:28:38;10.00;75.70
81951;DHT22;71452;52.562;5.642;2023-11-21T13:31:12;10.00;75.90
81951;DHT22;71452;52.562;5.642;2023-11-21T13:33:53;10.00;75.90
81951;DHT22;71452;52.562;5.642;2023-11-21T13:36:31;10.00;76.00
81951;DHT22;71452;52.562;5.642;2023-11-21T13:39:01;10.00;75.10
81951;DHT22;71452;52.562;5.642;2023-11-21T13:41:33;10.00;75.00
81951;DHT22;71452;52.562;5.642;2023-11-21T13:44:07;10.00;74.70
81951;DHT22;71452;52.562;5.642;2023-11-21T13:46:42;10.00;74.10
81951;DHT22;71452;52.562;5.642;2023-11-21T13:49:11;10.00;74.20
81951;DHT22;71452;52.562;5.642;2023-11-21T13:51:41;10.00;74.30
81951;DHT22;71452;52.562;5.642;2023-11-21T13:54:12;9.90;74.10
81951;DHT22;71452;52.562;5.642;2023-11-21T13:56:41;9.90;74.60
81951;DHT22;71452;52.562;5.642;2023-11-21T13:59:14;10.00;74.50
81951;DHT22;71452;52.562;5.642;2023-11-21T14:01:47;10.00;74.50
81951;DHT22;71452;52.562;5.642;2023-11-21T14:04:25;10.10;74.50
81951;DHT22;71452;52.562;5.642;2023-11-21T14:07:16;10.10;74.40
81951;DHT22;71452;52.562;5.642;2023-11-21T14:09:57;10.10;74.10
81951;DHT22;71452;52.562;5.642;2023-11-21T14:12:27;10.00;74.10
81951;DHT22;71452;52.562;5.642;2023-11-21T14:15:03;9.90;74.40
81951;DHT22;71452;52.562;5.642;2023-11-21T14:17:35;10.00;74.10
81951;DHT22;71452;52.562;5.642;2023-11-21T14:20:07;10.00;74.00
81951;DHT22;71452;52.562;5.642;2023-11-21T14:22:41;10.00;74.30
81951;DHT22;71452;52.562;5.642;2023-11-21T14:25:11;9.90;74.20
81951;DHT22;71452;52.562;5.642;2023-11-21T14:27:40;9.90;74.00
81951;DHT22;71452;52.562;5.642;2023-11-21T14:30:12;9.80;73.80
81951;DHT22;71452;52.562;5.642;2023-11-21T14:32:45;9.70;73.40
81951;DHT22;71452;52.562;5.642;2023-11-21T14:35:15;9.70;73.40
81951;DHT22;71452;52.562;5.642;2023-11-21T14:37:44;9.70;73.20
81951;DHT22;71452;52.562;5.642;2023-11-21T14:40:13;9.60;73.40
81951;DHT22;71452;52.562;5.642;2023-11-21T14:42:47;9.50;73.90
81951;DHT22;71452;52.562;5.642;2023-11-21T14:45:21;9.60;74.30
81951;DHT22;71452;52.562;5.642;2023-11-21T14:47:52;9.60;74.30
81951;DHT22;71452;52.562;5.642;2023-11-21T14:50:32;9.60;74.50
81951;DHT22;71452;52.562;5.642;2023-11-21T14:53:29;9.70;74.40
81951;DHT22;71452;52.562;5.642;2023-11-21T14:56:10;9.70;74.30
81951;DHT22;71452;52.562;5.642;2023-11-21T14:58:36;9.60;74.20
81951;DHT22;71452;52.562;5.642;2023-11-21T15:01:08;9.60;74.20
81951;DHT22;71452;52.562;5.642;2023-11-21T15:03:37;9.40;73.90
81951;DHT22;71452;52.562;5.642;2023-11-21T15:06:16;9.40;73.60
81951;DHT22;71452;52.562;5.642;2023-11-21T15:08:49;9.40;73.60
81951;DHT22;71452;52.562;5.642;2023-11-21T15:11:25;9.40;73.50
81951;DHT22;71452;52.562;5.642;2023-11-21T15:13:57;9.40;73.60
81951;DHT22;71452;52.562;5.642;2023-11-21T15:16:29;9.30;73.70
81951;DHT22;71452;52.562;5.642;2023-11-21T15:18:57;9.30;73.50
81951;DHT22;71452;52.562;5.642;2023-11-21T15:21:26;9.20;73.70
81951;DHT22;71452;52.562;5.642;2023-11-21T15:23:55;9.20;73.40
81951;DHT22;71452;52.562;5.642;2023-11-21T15:26:24;9.20;73.80
81951;DHT22;71452;52.562;5.642;2023-11-21T15:28:54;9.20;73.50
81951;DHT22;71452;52.562;5.642;2023-11-21T15:31:23;9.20;73.10
81951;DHT22;71452;52.562;5.642;2023-11-21T15:33:55;9.10;73.20
81951;DHT22;71452;52.562;5.642;2023-11-21T15:36:26;9.10;73.20
81951;DHT22;71452;52.562;5.642;2023-11-21T15:38:55;9.10;73.30
81951;DHT22;71452;52.562;5.642;2023-11-21T15:41:24;9.20;73.00
81951;DHT22;71452;52.562;5.642;2023-11-21T15:43:53;9.00;73.00
81951;DHT22;71452;52.562;5.642;2023-11-21T15:46:22;9.00;73.00
81951;DHT22;71452;52.562;5.642;2023-11-21T15:48:51;9.00;73.00
81951;DHT22;71452;52.562;5.642;2023-11-21T15:51:23;9.00;73.00
81951;DHT22;71452;52.562;5.642;2023-11-21T15:53:52;9.00;73.00